CYBB/YBB METAR and TAF weather

Enter ICAO airport designator
Station Type Date Time Source
CYBB METAR 2019/08/24 20:00 UTC NOAA

CYBB 242000Z 24007KT 220V290 15SM FEW045 SCT090 12/04 A2990 RMK SC2AC1 SLP128


Station Type Date Time Source
CYBB Decoded METAR 2019/08/24 20:00 UTC NOAA

Station name not available
Aug 24, 2019 - 04:00 PM EDT / 2019.08.24 2000 UTC
Wind: from the WSW (240 degrees) at 8 MPH (7 KT) (direction variable):0
Visibility: 15 mile(s):0
Sky conditions: partly cloudy
Temperature: 53 F (12 C)
Dew Point: 39 F (4 C)
Relative Humidity: 57%
Pressure (altimeter): 29.9 in. Hg (1012 hPa)
ob: CYBB 242000Z 24007KT 220V290 15SM FEW045 SCT090 12/04 A2990 RMK SC2AC1 SLP128
cycle: 20

Station Type Date Time Source
CYBB TAF 2019/08/24 19:00 UTC NOAA

TAF CYBB 241838Z 2419/2424 25012KT P6SM SCT040
RMK NXT FCST WILL BE ISSUED AT 251845Z

Example: see airport list